createdAt,value
2024-01-24T00:02:08.579Z,3.22
2024-01-24T00:04:36.711Z,2.83
2024-01-24T00:07:06.449Z,2.83
2024-01-24T00:09:35.074Z,2.72
2024-01-24T00:12:03.602Z,2.30
2024-01-24T00:14:31.832Z,2.28
2024-01-24T00:17:00.045Z,2.00
2024-01-24T00:19:28.344Z,1.90
2024-01-24T00:21:57.224Z,1.90
2024-01-24T00:24:26.926Z,1.50
2024-01-24T00:26:55.098Z,1.60
2024-01-24T00:29:23.249Z,1.85
2024-01-24T00:31:51.512Z,1.80
2024-01-24T00:34:19.738Z,1.60
2024-01-24T00:36:48.051Z,1.35
2024-01-24T00:39:16.908Z,1.17
2024-01-24T00:41:47.843Z,1.60
2024-01-24T00:44:16.389Z,1.83
2024-01-24T00:46:44.746Z,1.40
2024-01-24T00:49:14.824Z,1.50
2024-01-24T00:51:43.111Z,1.00
2024-01-24T00:54:11.374Z,1.75
2024-01-24T00:56:41.264Z,0.90
2024-01-24T00:59:10.916Z,1.60
2024-01-24T01:01:39.075Z,1.48
2024-01-24T01:04:07.554Z,1.08
2024-01-24T01:06:35.842Z,1.20
2024-01-24T01:09:04.350Z,1.25
2024-01-24T01:11:32.568Z,1.10
2024-01-24T01:14:00.731Z,0.70
2024-01-24T01:16:30.419Z,0.90
2024-01-24T01:18:58.806Z,0.88
2024-01-24T01:21:27.153Z,1.45
2024-01-24T01:23:55.314Z,1.00
2024-01-24T01:26:23.486Z,1.30
2024-01-24T01:28:51.791Z,1.10
2024-01-24T01:31:20.100Z,2.00
2024-01-24T01:33:49.857Z,0.85
2024-01-24T01:36:23.207Z,0.90
2024-01-24T01:38:52.398Z,0.80
2024-01-24T01:41:20.565Z,0.75
2024-01-24T01:43:49.206Z,1.15
2024-01-24T01:46:20.230Z,0.93
2024-01-24T01:48:51.104Z,0.80
2024-01-24T01:51:20.951Z,0.77
2024-01-24T01:53:50.919Z,0.80
2024-01-24T01:56:22.194Z,1.00
2024-01-24T01:58:51.709Z,0.93
2024-01-24T02:01:21.661Z,0.90
2024-01-24T02:03:51.936Z,1.10
2024-01-24T02:06:20.483Z,1.00
2024-01-24T02:08:48.971Z,0.70
2024-01-24T02:11:17.971Z,0.82
2024-01-24T02:13:46.441Z,0.90
2024-01-24T02:16:18.164Z,1.00
2024-01-24T02:18:48.481Z,1.20
2024-01-24T02:21:18.262Z,0.98
2024-01-24T02:23:48.461Z,1.30
2024-01-24T02:26:18.203Z,0.93
2024-01-24T02:28:46.348Z,0.80
2024-01-24T02:31:14.522Z,1.00
2024-01-24T02:33:42.888Z,1.48
2024-01-24T02:36:13.802Z,0.70
2024-01-24T02:38:42.006Z,1.92
2024-01-24T02:41:10.316Z,0.90
2024-01-24T02:43:39.929Z,0.75
2024-01-24T02:46:08.761Z,0.77
2024-01-24T02:48:37.090Z,0.60
2024-01-24T02:51:05.344Z,0.60
2024-01-24T02:53:32.535Z,1.05
2024-01-24T02:56:00.796Z,0.60
2024-01-24T02:58:28.931Z,0.80
2024-01-24T03:00:58.690Z,0.60
2024-01-24T03:03:26.938Z,0.43
2024-01-24T03:05:55.131Z,0.40
2024-01-24T03:08:23.539Z,0.52
2024-01-24T03:10:51.811Z,0.50
2024-01-24T03:13:20.067Z,0.50
2024-01-24T03:15:48.358Z,0.52
2024-01-24T03:18:18.477Z,0.40
2024-01-24T03:20:47.849Z,0.68
2024-01-24T03:23:17.986Z,0.90
2024-01-24T03:25:46.165Z,0.70
2024-01-24T03:28:14.341Z,0.57
2024-01-24T03:30:42.665Z,0.60
2024-01-24T03:33:11.047Z,0.47
2024-01-24T03:35:40.646Z,0.70
2024-01-24T03:38:08.905Z,0.50
2024-01-24T03:40:37.306Z,0.68
2024-01-24T03:43:06.614Z,0.70
2024-01-24T03:45:34.894Z,0.50
2024-01-24T03:48:03.313Z,0.50
2024-01-24T03:50:31.561Z,0.98
2024-01-24T03:53:02.603Z,0.30
2024-01-24T03:55:31.048Z,0.60
2024-01-24T03:57:59.360Z,0.70
2024-01-24T04:00:32.369Z,0.40
2024-01-24T04:03:00.704Z,0.50
2024-01-24T04:05:29.197Z,0.60
2024-01-24T04:07:57.380Z,0.77
2024-01-24T04:10:26.985Z,0.70
2024-01-24T04:12:55.205Z,0.85
2024-01-24T04:15:23.795Z,0.50
2024-01-24T04:17:52.105Z,0.50
2024-01-24T04:20:20.392Z,0.30
2024-01-24T04:22:48.784Z,0.52
2024-01-24T04:25:17.121Z,0.68
2024-01-24T04:27:46.668Z,0.73
2024-01-24T04:30:16.182Z,0.50
2024-01-24T04:32:44.459Z,0.80
2024-01-24T04:35:13.071Z,0.57
2024-01-24T04:37:41.309Z,0.93
2024-01-24T04:40:11.542Z,0.82
2024-01-24T04:42:40.436Z,1.02
2024-01-24T04:45:11.437Z,0.47
2024-01-24T04:47:44.178Z,0.50
2024-01-24T04:50:14.096Z,0.52
2024-01-24T04:52:42.396Z,1.10
2024-01-24T04:55:13.063Z,0.52
2024-01-24T04:57:42.020Z,1.00
2024-01-24T05:00:13.904Z,0.70
2024-01-24T05:05:11.744Z,0.40
2024-01-24T05:07:40.127Z,0.60
2024-01-24T05:10:09.544Z,0.95
2024-01-24T05:12:37.817Z,0.55
2024-01-24T05:15:09.423Z,0.35
2024-01-24T05:17:41.548Z,0.90
2024-01-24T05:20:12.210Z,0.32
2024-01-24T05:22:41.645Z,0.73
2024-01-24T05:25:09.936Z,0.60
2024-01-24T05:27:38.141Z,0.60
2024-01-24T05:30:16.344Z,0.38
2024-01-24T05:32:55.171Z,0.40
2024-01-24T05:35:23.349Z,0.35
2024-01-24T05:37:51.645Z,0.30
2024-01-24T05:40:19.877Z,0.22
2024-01-24T05:42:49.428Z,0.50
2024-01-24T05:45:17.948Z,0.57
2024-01-24T05:47:46.547Z,0.75
2024-01-24T05:50:16.718Z,0.60
2024-01-24T05:52:45.680Z,0.43
2024-01-24T05:55:14.100Z,0.40
2024-01-24T05:57:42.891Z,1.00
2024-01-24T06:00:15.808Z,0.85
2024-01-24T06:02:45.640Z,0.40
2024-01-24T06:05:16.892Z,0.40
2024-01-24T06:07:45.880Z,0.60
2024-01-24T06:10:14.301Z,0.77
2024-01-24T06:12:42.592Z,0.30
2024-01-24T06:15:11.778Z,0.20
2024-01-24T06:17:40.135Z,0.30
2024-01-24T06:20:11.242Z,0.40
2024-01-24T06:22:41.165Z,1.15
2024-01-24T06:25:10.395Z,0.57
2024-01-24T06:27:39.100Z,0.32
2024-01-24T06:30:19.250Z,0.88
2024-01-24T06:32:52.610Z,0.40
2024-01-24T06:35:22.377Z,0.30
2024-01-24T06:37:53.218Z,0.25
2024-01-24T06:40:21.989Z,0.30
2024-01-24T06:42:51.582Z,0.38
2024-01-24T06:45:20.524Z,0.40
2024-01-24T06:47:49.133Z,0.32
2024-01-24T06:50:19.143Z,0.28
2024-01-24T06:52:47.871Z,0.60
2024-01-24T06:55:18.744Z,0.20
2024-01-24T06:57:47.153Z,0.20
2024-01-24T07:00:16.219Z,0.30
2024-01-24T07:02:44.514Z,0.10
2024-01-24T07:05:13.049Z,0.40
2024-01-24T07:07:41.321Z,0.17
2024-01-24T07:10:12.796Z,0.43
2024-01-24T07:15:17.529Z,0.30
2024-01-24T07:17:46.478Z,0.57
2024-01-24T07:20:17.183Z,0.70
2024-01-24T07:22:45.526Z,0.30
2024-01-24T07:25:13.934Z,0.30
2024-01-24T07:27:46.006Z,0.30
2024-01-24T07:30:16.805Z,0.60
2024-01-24T07:32:45.337Z,0.70
2024-01-24T07:35:13.781Z,0.88
2024-01-24T07:37:42.090Z,1.40
2024-01-24T07:40:12.064Z,1.42
2024-01-24T07:42:40.453Z,1.20
2024-01-24T07:45:11.432Z,1.67
2024-01-24T07:47:40.474Z,2.13
2024-01-24T07:50:09.695Z,2.58
2024-01-24T07:52:41.976Z,1.30
2024-01-24T07:55:12.584Z,1.00
2024-01-24T07:57:41.812Z,0.80
2024-01-24T08:00:18.452Z,0.93
2024-01-24T08:02:50.675Z,0.80
2024-01-24T08:05:20.249Z,1.23
2024-01-24T08:07:48.619Z,0.82
2024-01-24T08:10:17.082Z,1.63
2024-01-24T08:12:45.849Z,1.10
2024-01-24T08:15:15.859Z,1.05
2024-01-24T08:17:44.762Z,1.05
2024-01-24T08:20:13.750Z,0.88
2024-01-24T08:22:41.995Z,1.25
2024-01-24T08:25:10.712Z,1.42
2024-01-24T08:27:39.259Z,1.15
2024-01-24T08:30:08.842Z,1.42
2024-01-24T08:32:42.155Z,1.15
2024-01-24T08:35:10.893Z,1.67
2024-01-24T08:37:39.288Z,1.40
2024-01-24T08:40:09.964Z,1.63
2024-01-24T08:42:37.467Z,1.95
2024-01-24T08:45:10.050Z,2.65
2024-01-24T08:47:39.844Z,1.90
2024-01-24T08:50:09.750Z,1.83
2024-01-24T08:52:38.013Z,2.00
2024-01-24T08:55:07.838Z,1.85
2024-01-24T08:57:36.302Z,2.72
2024-01-24T09:00:07.055Z,3.42
2024-01-24T09:02:35.477Z,2.75
2024-01-24T09:05:06.479Z,2.92
2024-01-24T09:07:35.060Z,2.07
2024-01-24T09:10:04.400Z,3.38
2024-01-24T09:12:33.462Z,3.15
2024-01-24T09:15:02.175Z,2.83
2024-01-24T09:17:30.744Z,3.75
2024-01-24T09:19:59.225Z,2.53
2024-01-24T09:22:28.935Z,2.78
2024-01-24T09:24:57.590Z,2.40
2024-01-24T09:27:26.094Z,2.97
2024-01-24T09:29:55.085Z,3.97
2024-01-24T09:32:23.257Z,2.75
2024-01-24T09:34:52.163Z,2.60
2024-01-24T09:37:21.870Z,3.30
2024-01-24T09:39:55.401Z,2.25
2024-01-24T09:42:29.005Z,3.42
2024-01-24T09:45:07.225Z,3.03
2024-01-24T09:47:36.885Z,2.38
2024-01-24T09:50:05.977Z,2.80
2024-01-24T09:52:34.981Z,2.60
2024-01-24T09:55:06.703Z,2.45
2024-01-24T09:57:35.670Z,2.75
2024-01-24T10:00:05.421Z,2.83
2024-01-24T10:02:33.746Z,2.90
2024-01-24T10:05:03.302Z,2.97
2024-01-24T10:07:32.087Z,2.90
2024-01-24T10:10:10.180Z,2.50
2024-01-24T10:12:39.030Z,3.47
2024-01-24T10:15:08.897Z,4.95
2024-01-24T10:17:37.405Z,2.85
2024-01-24T10:20:07.867Z,3.92
2024-01-24T10:22:36.293Z,3.85
2024-01-24T10:25:06.868Z,2.95
2024-01-24T10:27:35.871Z,3.75
2024-01-24T10:30:04.798Z,3.63
2024-01-24T10:32:35.993Z,3.15
2024-01-24T10:35:06.302Z,2.40
2024-01-24T10:37:36.734Z,3.75
2024-01-24T10:40:12.947Z,3.10
2024-01-24T10:42:44.301Z,3.17
2024-01-24T10:45:13.200Z,3.25
2024-01-24T10:47:42.683Z,2.97
2024-01-24T10:50:13.827Z,2.88
2024-01-24T10:52:43.821Z,4.37
2024-01-24T10:55:16.090Z,3.20
2024-01-24T10:57:46.053Z,4.13
2024-01-24T11:00:17.350Z,3.17
2024-01-24T11:02:46.212Z,2.90
2024-01-24T11:05:21.370Z,4.90
2024-01-24T11:07:56.977Z,3.10
2024-01-24T11:10:32.674Z,2.92
2024-01-24T11:13:03.454Z,3.75
2024-01-24T11:15:32.590Z,3.40
2024-01-24T11:18:28.138Z,3.92
2024-01-24T11:20:58.065Z,4.35
2024-01-24T11:23:43.335Z,2.97
2024-01-24T11:26:14.646Z,2.95
2024-01-24T11:28:42.874Z,3.20
2024-01-24T11:31:12.706Z,3.80
2024-01-24T11:34:07.852Z,3.90
2024-01-24T11:36:42.832Z,4.07
2024-01-24T11:39:35.537Z,2.97
2024-01-24T11:42:44.334Z,3.17
2024-01-24T11:45:16.973Z,3.97
2024-01-24T11:47:45.549Z,4.07
2024-01-24T11:50:14.400Z,4.05
2024-01-24T11:52:43.114Z,4.10
2024-01-24T11:55:11.928Z,2.47
2024-01-24T11:57:41.949Z,3.47
2024-01-24T12:00:15.818Z,3.45
2024-01-24T12:02:46.008Z,4.03
2024-01-24T12:05:17.183Z,3.67
2024-01-24T12:07:46.022Z,3.45
2024-01-24T12:10:14.257Z,3.45
2024-01-24T12:12:44.592Z,3.88
2024-01-24T12:15:13.061Z,3.45
2024-01-24T12:17:42.098Z,4.90
2024-01-24T12:20:17.723Z,4.05
2024-01-24T12:22:46.619Z,5.13
2024-01-24T12:25:15.122Z,3.60
2024-01-24T12:27:45.273Z,4.25
2024-01-24T12:30:15.840Z,4.95
2024-01-24T12:32:44.559Z,4.55
2024-01-24T12:35:14.063Z,8.18
2024-01-24T12:37:43.011Z,8.27
2024-01-24T12:40:13.427Z,7.00
2024-01-24T12:42:42.232Z,5.03
2024-01-24T12:45:13.966Z,3.97
2024-01-24T12:47:42.500Z,3.92
2024-01-24T12:50:12.565Z,4.50
2024-01-24T12:52:41.586Z,3.65
2024-01-24T12:55:10.829Z,3.97
2024-01-24T12:57:39.537Z,3.95
2024-01-24T13:00:11.366Z,4.22
2024-01-24T13:02:41.834Z,3.67
2024-01-24T13:05:10.684Z,3.30
2024-01-24T13:07:41.183Z,3.42
2024-01-24T13:10:11.497Z,3.30
2024-01-24T13:12:40.685Z,3.47
2024-01-24T13:15:09.478Z,3.17
2024-01-24T13:17:37.996Z,3.78
2024-01-24T13:20:10.343Z,4.00
2024-01-24T13:22:38.596Z,3.03
2024-01-24T13:25:07.832Z,3.15
2024-01-24T13:27:36.242Z,4.15
2024-01-24T13:30:04.952Z,3.20
2024-01-24T13:32:33.285Z,3.80
2024-01-24T13:35:01.720Z,4.60
2024-01-24T13:37:31.597Z,3.38
2024-01-24T13:40:00.028Z,3.22
2024-01-24T13:42:28.303Z,3.85
2024-01-24T13:44:56.644Z,5.25
2024-01-24T13:47:25.076Z,3.83
2024-01-24T13:49:53.526Z,3.40
2024-01-24T13:52:22.007Z,4.53
2024-01-24T13:54:53.548Z,5.05
2024-01-24T13:57:21.787Z,4.47
2024-01-24T13:59:50.045Z,4.13
2024-01-24T14:02:18.438Z,4.13
2024-01-24T14:04:49.261Z,5.35
2024-01-24T14:07:19.474Z,3.33
2024-01-24T14:09:47.851Z,3.78
2024-01-24T14:12:18.109Z,3.83
2024-01-24T14:14:46.980Z,4.13
2024-01-24T14:17:15.601Z,3.90
2024-01-24T14:19:43.915Z,4.22
2024-01-24T14:22:12.336Z,5.28
2024-01-24T14:24:40.510Z,4.57
2024-01-24T14:27:08.854Z,4.13
2024-01-24T14:29:38.484Z,4.97
2024-01-24T14:32:07.440Z,8.60
2024-01-24T14:34:35.811Z,4.45
2024-01-24T14:37:10.277Z,4.47
2024-01-24T14:39:40.739Z,4.18
2024-01-24T14:42:10.202Z,4.35
2024-01-24T14:44:39.740Z,4.72
2024-01-24T14:47:08.255Z,3.53
2024-01-24T14:49:36.648Z,4.28
2024-01-24T14:52:05.188Z,3.88
2024-01-24T14:54:33.483Z,4.20
2024-01-24T14:57:01.765Z,4.40
2024-01-24T14:59:30.559Z,4.72
2024-01-24T15:02:00.418Z,3.15
2024-01-24T15:04:28.915Z,5.05
2024-01-24T15:06:57.519Z,3.95
2024-01-24T15:09:25.784Z,3.60
2024-01-24T15:11:54.231Z,4.50
2024-01-24T15:14:22.486Z,4.03
2024-01-24T15:16:50.701Z,3.90
2024-01-24T15:19:20.436Z,3.58
2024-01-24T15:21:48.950Z,4.03
2024-01-24T15:24:19.722Z,4.78
2024-01-24T15:26:48.108Z,4.15
2024-01-24T15:29:16.331Z,4.15
2024-01-24T15:31:44.610Z,4.07
2024-01-24T15:34:15.779Z,4.05
2024-01-24T15:36:46.277Z,4.30
2024-01-24T15:39:15.289Z,4.60
2024-01-24T15:41:43.862Z,3.25
2024-01-24T15:44:12.148Z,3.53
2024-01-24T15:46:40.356Z,4.13
2024-01-24T15:49:10.328Z,4.00
2024-01-24T15:51:38.574Z,4.78
2024-01-24T15:54:08.376Z,4.53
2024-01-24T15:56:36.826Z,3.95
2024-01-24T15:59:05.159Z,4.68
2024-01-24T16:01:34.032Z,4.97
2024-01-24T16:04:02.822Z,4.38
2024-01-24T16:06:31.256Z,4.43
2024-01-24T16:08:59.534Z,4.60
2024-01-24T16:11:29.258Z,4.30
2024-01-24T16:13:57.475Z,4.05
2024-01-24T16:16:26.553Z,4.43
2024-01-24T16:18:55.071Z,4.65
2024-01-24T16:21:23.656Z,4.15
2024-01-24T16:23:51.879Z,4.88
2024-01-24T16:26:20.155Z,4.18
2024-01-24T16:28:50.030Z,4.88
2024-01-24T16:31:18.227Z,4.40
2024-01-24T16:33:46.506Z,4.28
2024-01-24T16:36:14.788Z,4.97
2024-01-24T16:38:42.985Z,3.50
2024-01-24T16:41:12.001Z,4.60
2024-01-24T16:43:40.502Z,4.32
2024-01-24T16:46:10.226Z,4.95
2024-01-24T16:48:39.488Z,4.70
2024-01-24T16:51:07.790Z,4.32
2024-01-24T16:53:37.517Z,4.50
2024-01-24T16:56:08.609Z,4.60
2024-01-24T16:58:36.871Z,5.77
2024-01-24T17:01:05.649Z,5.00
2024-01-24T17:03:35.543Z,4.95
2024-01-24T17:06:04.067Z,5.25
2024-01-24T17:08:32.503Z,5.20
2024-01-24T17:11:00.926Z,4.75
2024-01-24T17:13:29.215Z,5.10
2024-01-24T17:15:57.909Z,4.65
2024-01-24T17:18:27.714Z,4.57
2024-01-24T17:20:57.613Z,4.53
2024-01-24T17:23:25.754Z,6.25
2024-01-24T17:25:53.911Z,5.20
2024-01-24T17:28:22.195Z,4.43
2024-01-24T17:30:51.974Z,6.40
2024-01-24T17:33:20.257Z,4.97
2024-01-24T17:35:48.472Z,5.50
2024-01-24T17:38:19.161Z,5.05
2024-01-24T17:40:48.407Z,6.72
2024-01-24T17:43:17.871Z,6.00
2024-01-24T17:45:46.284Z,6.03
2024-01-24T17:48:14.665Z,6.03
2024-01-24T17:50:43.212Z,6.30
2024-01-24T17:53:13.768Z,5.15
2024-01-24T17:55:43.278Z,6.60
2024-01-24T17:58:11.575Z,4.60
2024-01-24T18:00:40.018Z,4.25
2024-01-24T18:03:08.334Z,6.70
2024-01-24T18:05:38.152Z,5.53
2024-01-24T18:08:07.842Z,6.53
2024-01-24T18:10:36.333Z,5.03
2024-01-24T18:13:06.226Z,5.82
2024-01-24T18:15:34.899Z,4.97
2024-01-24T18:18:04.740Z,4.82
2024-01-24T18:20:33.314Z,4.30
2024-01-24T18:23:01.895Z,4.53
2024-01-24T18:25:30.928Z,4.80
2024-01-24T18:27:59.181Z,4.55
2024-01-24T18:30:28.774Z,5.35
2024-01-24T18:32:56.994Z,5.30
2024-01-24T18:35:25.225Z,5.43
2024-01-24T18:37:53.440Z,5.20
2024-01-24T18:40:21.591Z,5.00
2024-01-24T18:42:49.909Z,5.47
2024-01-24T18:45:18.934Z,4.93
2024-01-24T18:47:50.776Z,5.75
2024-01-24T18:50:20.396Z,4.35
2024-01-24T18:52:49.502Z,5.00
2024-01-24T18:55:19.870Z,5.50
2024-01-24T18:57:50.313Z,5.10
2024-01-24T19:00:20.280Z,5.47
2024-01-24T19:02:50.178Z,5.95
2024-01-24T19:05:24.187Z,4.90
2024-01-24T19:08:01.722Z,5.85
2024-01-24T19:10:29.981Z,5.10
2024-01-24T19:12:58.315Z,5.25
2024-01-24T19:15:28.206Z,4.85
2024-01-24T19:18:00.337Z,5.47
2024-01-24T19:20:30.445Z,5.78
2024-01-24T19:22:58.619Z,5.22
2024-01-24T19:25:26.869Z,4.88
2024-01-24T19:27:55.145Z,3.95
2024-01-24T19:30:25.605Z,6.45
2024-01-24T19:32:53.898Z,5.72
2024-01-24T19:35:23.506Z,6.28
2024-01-24T19:37:51.658Z,6.03
2024-01-24T19:40:19.840Z,7.00
2024-01-24T19:42:48.428Z,7.85
2024-01-24T19:45:17.032Z,7.47
2024-01-24T19:47:45.326Z,6.95
2024-01-24T19:50:13.559Z,6.10
2024-01-24T19:52:43.182Z,6.00
2024-01-24T19:55:11.610Z,6.22
2024-01-24T19:57:40.688Z,5.25
2024-01-24T20:00:12.765Z,6.90
2024-01-24T20:02:41.374Z,5.30
2024-01-24T20:05:09.937Z,8.45
2024-01-24T20:07:38.306Z,8.90
2024-01-24T20:10:08.835Z,6.28
2024-01-24T20:12:37.315Z,6.10
2024-01-24T20:15:06.645Z,6.88
2024-01-24T20:17:34.950Z,13.07
2024-01-24T20:20:03.627Z,6.80
2024-01-24T20:22:31.837Z,4.82
2024-01-24T20:25:00.069Z,7.15
2024-01-24T20:27:29.695Z,5.10
2024-01-24T20:29:57.821Z,4.90
2024-01-24T20:32:26.063Z,5.43
2024-01-24T20:34:54.607Z,4.50
2024-01-24T20:37:22.804Z,4.88
2024-01-24T20:39:51.099Z,5.63
2024-01-24T20:42:28.256Z,6.03
2024-01-24T20:44:59.721Z,4.63
2024-01-24T20:47:28.558Z,4.43
2024-01-24T20:49:57.146Z,4.65
2024-01-24T20:52:25.512Z,4.60
2024-01-24T20:54:53.796Z,4.88
2024-01-24T20:57:22.052Z,4.85
2024-01-24T20:59:51.272Z,5.07
2024-01-24T21:02:21.876Z,5.32
2024-01-24T21:04:50.396Z,4.50
2024-01-24T21:07:18.996Z,6.35
2024-01-24T21:09:47.513Z,7.45
2024-01-24T21:12:15.868Z,8.20
2024-01-24T21:14:44.031Z,13.05
2024-01-24T21:17:12.528Z,14.20
2024-01-24T21:19:42.133Z,8.80
2024-01-24T21:22:10.566Z,5.25
2024-01-24T21:24:38.870Z,5.25
2024-01-24T21:27:07.126Z,5.22
2024-01-24T21:29:35.332Z,5.70
2024-01-24T21:32:03.578Z,4.32
2024-01-24T21:34:31.933Z,5.60
2024-01-24T21:37:02.353Z,5.50
2024-01-24T21:39:30.528Z,5.65
2024-01-24T21:41:58.796Z,4.68
2024-01-24T21:44:27.414Z,4.85
2024-01-24T21:46:55.751Z,5.45
2024-01-24T21:49:24.045Z,6.15
2024-01-24T21:51:52.293Z,4.90
2024-01-24T21:54:21.880Z,5.20
2024-01-24T21:56:50.767Z,4.25
2024-01-24T21:59:19.060Z,3.80
2024-01-24T22:01:47.364Z,5.40
2024-01-24T22:04:15.790Z,6.28
2024-01-24T22:06:44.381Z,4.15
2024-01-24T22:09:15.059Z,5.57
2024-01-24T22:11:44.650Z,5.78
2024-01-24T22:14:13.002Z,5.03
2024-01-24T22:16:41.287Z,5.13
2024-01-24T22:19:09.545Z,5.28
2024-01-24T22:21:42.250Z,4.47
2024-01-24T22:24:10.922Z,4.90
2024-01-24T22:26:39.895Z,5.38
2024-01-24T22:29:10.527Z,5.03
2024-01-24T22:31:38.895Z,5.28
2024-01-24T22:34:07.327Z,5.07
2024-01-24T22:36:37.666Z,5.35
2024-01-24T22:39:06.280Z,4.85
2024-01-24T22:41:38.832Z,4.95
2024-01-24T22:44:07.114Z,5.57
2024-01-24T22:46:38.075Z,4.95
2024-01-24T22:49:06.398Z,5.80
2024-01-24T22:51:36.463Z,7.75
2024-01-24T22:54:05.166Z,7.18
2024-01-24T22:56:33.448Z,5.00
2024-01-24T22:59:01.843Z,6.32
2024-01-24T23:01:30.421Z,4.20
2024-01-24T23:04:00.205Z,5.57
2024-01-24T23:06:28.635Z,7.00
2024-01-24T23:08:56.963Z,7.60
2024-01-24T23:11:25.131Z,5.85
2024-01-24T23:13:53.559Z,6.90
2024-01-24T23:16:21.908Z,6.13
2024-01-24T23:18:50.317Z,5.55
2024-01-24T23:21:20.070Z,5.65
2024-01-24T23:23:48.240Z,4.07
2024-01-24T23:26:16.395Z,5.13
2024-01-24T23:28:44.568Z,4.53
2024-01-24T23:31:13.274Z,5.57
2024-01-24T23:33:41.611Z,4.75
2024-01-24T23:36:10.236Z,5.38
2024-01-24T23:38:39.747Z,5.78
2024-01-24T23:41:07.955Z,6.03
2024-01-24T23:43:36.153Z,4.70
2024-01-24T23:46:04.379Z,6.75
2024-01-24T23:48:33.907Z,5.38
2024-01-24T23:51:02.550Z,6.07
2024-01-24T23:53:30.948Z,6.18
2024-01-24T23:56:01.055Z,6.32
2024-01-24T23:58:29.218Z,5.22
